sensor_id;sensor_type;location;lat;lon;timestamp;P1;durP1;ratioP1;P2;durP2;ratioP2
65009;SDS011;51556;50.002;22.014;2023-02-28T00:00:22;48.10;;;20.80;;
65009;SDS011;51556;50.002;22.014;2023-02-28T00:02:48;46.20;;;19.30;;
65009;SDS011;51556;50.002;22.014;2023-02-28T00:05:15;47.40;;;20.10;;
65009;SDS011;51556;50.002;22.014;2023-02-28T00:07:43;49.30;;;20.70;;
65009;SDS011;51556;50.002;22.014;2023-02-28T00:10:09;47.10;;;19.90;;
65009;SDS011;51556;50.002;22.014;2023-02-28T00:12:40;46.90;;;19.80;;
65009;SDS011;51556;50.002;22.014;2023-02-28T00:15:06;46.50;;;19.60;;
65009;SDS011;51556;50.002;22.014;2023-02-28T00:17:33;49.80;;;22.80;;
65009;SDS011;51556;50.002;22.014;2023-02-28T00:19:59;48.20;;;21.80;;
65009;SDS011;51556;50.002;22.014;2023-02-28T00:22:40;48.80;;;21.60;;
65009;SDS011;51556;50.002;22.014;2023-02-28T00:27:37;47.60;;;19.20;;
65009;SDS011;51556;50.002;22.014;2023-02-28T00:30:04;46.30;;;19.20;;
65009;SDS011;51556;50.002;22.014;2023-02-28T00:32:31;49.10;;;19.70;;
65009;SDS011;51556;50.002;22.014;2023-02-28T00:34:56;48.90;;;20.30;;
65009;SDS011;51556;50.002;22.014;2023-02-28T00:37:22;40.10;;;18.60;;
65009;SDS011;51556;50.002;22.014;2023-02-28T00:39:48;44.20;;;19.20;;
65009;SDS011;51556;50.002;22.014;2023-02-28T00:42:13;48.50;;;20.90;;
65009;SDS011;51556;50.002;22.014;2023-02-28T00:44:38;52.00;;;21.50;;
65009;SDS011;51556;50.002;22.014;2023-02-28T00:47:04;50.90;;;20.80;;
65009;SDS011;51556;50.002;22.014;2023-02-28T00:49:30;52.90;;;22.00;;
65009;SDS011;51556;50.002;22.014;2023-02-28T00:51:55;47.60;;;20.80;;
65009;SDS011;51556;50.002;22.014;2023-02-28T00:54:22;55.20;;;21.90;;
65009;SDS011;51556;50.002;22.014;2023-02-28T00:56:48;48.30;;;20.90;;
65009;SDS011;51556;50.002;22.014;2023-02-28T00:59:14;54.30;;;22.50;;
65009;SDS011;51556;50.002;22.014;2023-02-28T01:01:41;49.40;;;22.20;;
65009;SDS011;51556;50.002;22.014;2023-02-28T01:04:08;51.10;;;22.30;;
65009;SDS011;51556;50.002;22.014;2023-02-28T01:06:33;50.80;;;22.60;;
65009;SDS011;51556;50.002;22.014;2023-02-28T01:08:59;68.00;;;25.80;;
65009;SDS011;51556;50.002;22.014;2023-02-28T01:11:25;60.20;;;24.50;;
65009;SDS011;51556;50.002;22.014;2023-02-28T01:13:51;61.40;;;24.80;;
65009;SDS011;51556;50.002;22.014;2023-02-28T01:16:17;59.80;;;23.40;;
65009;SDS011;51556;50.002;22.014;2023-02-28T01:18:42;66.10;;;27.50;;
65009;SDS011;51556;50.002;22.014;2023-02-28T01:21:08;63.00;;;25.90;;
65009;SDS011;51556;50.002;22.014;2023-02-28T01:23:36;61.40;;;24.90;;
65009;SDS011;51556;50.002;22.014;2023-02-28T01:26:08;67.00;;;25.20;;
65009;SDS011;51556;50.002;22.014;2023-02-28T01:28:37;59.20;;;24.60;;
65009;SDS011;51556;50.002;22.014;2023-02-28T01:31:02;58.40;;;26.00;;
65009;SDS011;51556;50.002;22.014;2023-02-28T01:33:28;47.30;;;22.40;;
65009;SDS011;51556;50.002;22.014;2023-02-28T01:35:57;46.30;;;19.00;;
65009;SDS011;51556;50.002;22.014;2023-02-28T01:38:35;36.40;;;16.20;;
65009;SDS011;51556;50.002;22.014;2023-02-28T01:41:01;40.70;;;18.10;;
65009;SDS011;51556;50.002;22.014;2023-02-28T01:43:52;38.50;;;17.60;;
65009;SDS011;51556;50.002;22.014;2023-02-28T01:46:21;29.90;;;16.00;;
65009;SDS011;51556;50.002;22.014;2023-02-28T01:48:49;32.10;;;15.50;;
65009;SDS011;51556;50.002;22.014;2023-02-28T01:52:05;32.40;;;14.20;;
65009;SDS011;51556;50.002;22.014;2023-02-28T01:54:24;25.50;;;12.80;;
65009;SDS011;51556;50.002;22.014;2023-02-28T01:56:57;27.10;;;12.60;;
65009;SDS011;51556;50.002;22.014;2023-02-28T02:00:09;25.60;;;11.90;;
65009;SDS011;51556;50.002;22.014;2023-02-28T02:02:34;23.10;;;10.60;;
65009;SDS011;51556;50.002;22.014;2023-02-28T02:05:06;19.80;;;9.40;;
65009;SDS011;51556;50.002;22.014;2023-02-28T02:07:35;21.30;;;9.10;;
65009;SDS011;51556;50.002;22.014;2023-02-28T02:15:42;34.30;;;14.20;;
65009;SDS011;51556;50.002;22.014;2023-02-28T02:19:11;32.30;;;13.70;;
65009;SDS011;51556;50.002;22.014;2023-02-28T02:32:54;25.90;;;11.90;;
65009;SDS011;51556;50.002;22.014;2023-02-28T02:43:44;25.80;;;12.20;;
65009;SDS011;51556;50.002;22.014;2023-02-28T02:46:44;28.50;;;11.80;;
65009;SDS011;51556;50.002;22.014;2023-02-28T02:49:21;27.40;;;11.10;;
65009;SDS011;51556;50.002;22.014;2023-02-28T02:51:49;30.70;;;13.20;;
65009;SDS011;51556;50.002;22.014;2023-02-28T02:54:27;31.00;;;12.50;;
65009;SDS011;51556;50.002;22.014;2023-02-28T02:56:59;29.10;;;13.20;;
65009;SDS011;51556;50.002;22.014;2023-02-28T02:59:28;30.70;;;14.00;;
65009;SDS011;51556;50.002;22.014;2023-02-28T03:01:56;29.10;;;13.40;;
65009;SDS011;51556;50.002;22.014;2023-02-28T03:04:27;28.70;;;13.40;;
65009;SDS011;51556;50.002;22.014;2023-02-28T03:06:58;29.90;;;13.00;;
65009;SDS011;51556;50.002;22.014;2023-02-28T03:09:24;29.30;;;13.20;;
65009;SDS011;51556;50.002;22.014;2023-02-28T03:11:51;31.90;;;13.90;;
65009;SDS011;51556;50.002;22.014;2023-02-28T03:16:58;30.50;;;13.70;;
65009;SDS011;51556;50.002;22.014;2023-02-28T03:19:47;31.70;;;13.80;;
65009;SDS011;51556;50.002;22.014;2023-02-28T03:22:40;38.10;;;15.50;;
65009;SDS011;51556;50.002;22.014;2023-02-28T03:30:10;31.90;;;15.00;;
65009;SDS011;51556;50.002;22.014;2023-02-28T03:35:18;26.90;;;12.90;;
65009;SDS011;51556;50.002;22.014;2023-02-28T03:37:50;26.90;;;13.00;;
65009;SDS011;51556;50.002;22.014;2023-02-28T03:40:21;26.20;;;13.90;;
65009;SDS011;51556;50.002;22.014;2023-02-28T03:42:51;30.30;;;14.30;;
65009;SDS011;51556;50.002;22.014;2023-02-28T03:45:24;43.30;;;17.60;;
65009;SDS011;51556;50.002;22.014;2023-02-28T03:47:54;41.60;;;17.00;;
65009;SDS011;51556;50.002;22.014;2023-02-28T03:50:35;40.30;;;16.00;;
65009;SDS011;51556;50.002;22.014;2023-02-28T03:56:14;26.00;;;11.60;;
65009;SDS011;51556;50.002;22.014;2023-02-28T04:04:23;41.00;;;20.10;;
65009;SDS011;51556;50.002;22.014;2023-02-28T04:06:50;41.60;;;18.20;;
65009;SDS011;51556;50.002;22.014;2023-02-28T04:09:17;36.90;;;18.20;;
65009;SDS011;51556;50.002;22.014;2023-02-28T04:11:48;36.60;;;19.00;;
65009;SDS011;51556;50.002;22.014;2023-02-28T04:14:18;41.90;;;17.80;;
65009;SDS011;51556;50.002;22.014;2023-02-28T04:16:44;37.90;;;17.50;;
65009;SDS011;51556;50.002;22.014;2023-02-28T04:19:11;33.30;;;16.20;;
65009;SDS011;51556;50.002;22.014;2023-02-28T04:21:38;37.60;;;16.20;;
65009;SDS011;51556;50.002;22.014;2023-02-28T04:24:09;38.30;;;15.70;;
65009;SDS011;51556;50.002;22.014;2023-02-28T04:26:40;30.60;;;14.70;;
65009;SDS011;51556;50.002;22.014;2023-02-28T04:29:08;31.50;;;14.20;;
65009;SDS011;51556;50.002;22.014;2023-02-28T04:31:35;28.30;;;13.20;;
65009;SDS011;51556;50.002;22.014;2023-02-28T04:34:00;29.30;;;13.50;;
65009;SDS011;51556;50.002;22.014;2023-02-28T04:36:26;30.30;;;14.10;;
65009;SDS011;51556;50.002;22.014;2023-02-28T04:38:52;40.10;;;17.60;;
65009;SDS011;51556;50.002;22.014;2023-02-28T04:41:20;96.20;;;39.20;;
65009;SDS011;51556;50.002;22.014;2023-02-28T04:43:47;140.70;;;56.40;;
65009;SDS011;51556;50.002;22.014;2023-02-28T04:46:13;179.80;;;70.20;;
65009;SDS011;51556;50.002;22.014;2023-02-28T04:48:39;145.10;;;55.60;;
65009;SDS011;51556;50.002;22.014;2023-02-28T04:51:07;114.50;;;49.00;;
65009;SDS011;51556;50.002;22.014;2023-02-28T04:53:35;127.90;;;51.80;;
65009;SDS011;51556;50.002;22.014;2023-02-28T04:56:02;77.90;;;31.10;;
65009;SDS011;51556;50.002;22.014;2023-02-28T04:58:28;74.50;;;31.20;;
65009;SDS011;51556;50.002;22.014;2023-02-28T05:00:56;82.00;;;33.00;;
65009;SDS011;51556;50.002;22.014;2023-02-28T05:03:40;62.60;;;25.40;;
65009;SDS011;51556;50.002;22.014;2023-02-28T05:06:06;61.80;;;24.50;;
65009;SDS011;51556;50.002;22.014;2023-02-28T05:08:32;42.10;;;18.80;;
65009;SDS011;51556;50.002;22.014;2023-02-28T05:10:58;29.00;;;15.60;;
65009;SDS011;51556;50.002;22.014;2023-02-28T05:13:26;35.20;;;16.20;;
65009;SDS011;51556;50.002;22.014;2023-02-28T05:15:52;37.40;;;16.80;;
65009;SDS011;51556;50.002;22.014;2023-02-28T05:18:17;39.40;;;16.80;;
65009;SDS011;51556;50.002;22.014;2023-02-28T05:20:43;46.80;;;17.90;;
65009;SDS011;51556;50.002;22.014;2023-02-28T05:23:10;37.60;;;17.30;;
65009;SDS011;51556;50.002;22.014;2023-02-28T05:25:38;51.30;;;19.30;;
65009;SDS011;51556;50.002;22.014;2023-02-28T05:28:04;43.40;;;18.10;;
65009;SDS011;51556;50.002;22.014;2023-02-28T05:30:29;40.10;;;18.60;;
65009;SDS011;51556;50.002;22.014;2023-02-28T05:32:56;46.80;;;19.40;;
65009;SDS011;51556;50.002;22.014;2023-02-28T05:35:22;53.80;;;22.70;;
65009;SDS011;51556;50.002;22.014;2023-02-28T05:37:47;49.10;;;20.80;;
65009;SDS011;51556;50.002;22.014;2023-02-28T05:40:13;49.50;;;22.20;;
65009;SDS011;51556;50.002;22.014;2023-02-28T05:42:39;50.00;;;22.30;;
65009;SDS011;51556;50.002;22.014;2023-02-28T05:45:05;52.00;;;22.10;;
65009;SDS011;51556;50.002;22.014;2023-02-28T05:47:32;50.40;;;21.30;;
65009;SDS011;51556;50.002;22.014;2023-02-28T05:49:57;49.60;;;20.70;;
65009;SDS011;51556;50.002;22.014;2023-02-28T05:52:23;50.60;;;20.90;;
65009;SDS011;51556;50.002;22.014;2023-02-28T05:54:49;48.80;;;19.70;;
65009;SDS011;51556;50.002;22.014;2023-02-28T05:57:17;53.90;;;21.70;;
65009;SDS011;51556;50.002;22.014;2023-02-28T05:59:43;47.80;;;20.90;;
65009;SDS011;51556;50.002;22.014;2023-02-28T06:02:15;41.80;;;18.70;;
65009;SDS011;51556;50.002;22.014;2023-02-28T06:04:42;47.60;;;19.60;;
65009;SDS011;51556;50.002;22.014;2023-02-28T06:07:08;50.20;;;21.40;;
65009;SDS011;51556;50.002;22.014;2023-02-28T06:09:34;51.30;;;21.50;;
65009;SDS011;51556;50.002;22.014;2023-02-28T06:12:02;62.00;;;22.00;;
65009;SDS011;51556;50.002;22.014;2023-02-28T06:14:30;60.70;;;23.90;;
65009;SDS011;51556;50.002;22.014;2023-02-28T06:16:57;58.80;;;23.90;;
65009;SDS011;51556;50.002;22.014;2023-02-28T06:19:23;59.20;;;23.00;;
65009;SDS011;51556;50.002;22.014;2023-02-28T06:21:50;55.60;;;23.60;;
65009;SDS011;51556;50.002;22.014;2023-02-28T06:24:20;65.70;;;23.50;;
65009;SDS011;51556;50.002;22.014;2023-02-28T06:26:47;61.60;;;22.70;;
65009;SDS011;51556;50.002;22.014;2023-02-28T06:29:13;55.10;;;22.00;;
65009;SDS011;51556;50.002;22.014;2023-02-28T06:31:43;55.20;;;21.90;;
65009;SDS011;51556;50.002;22.014;2023-02-28T06:34:12;53.90;;;22.00;;
65009;SDS011;51556;50.002;22.014;2023-02-28T06:36:39;49.20;;;22.10;;
65009;SDS011;51556;50.002;22.014;2023-02-28T06:39:06;56.40;;;22.40;;
65009;SDS011;51556;50.002;22.014;2023-02-28T06:41:32;60.70;;;23.90;;
65009;SDS011;51556;50.002;22.014;2023-02-28T06:44:02;56.70;;;23.00;;
65009;SDS011;51556;50.002;22.014;2023-02-28T06:46:36;55.30;;;25.90;;
65009;SDS011;51556;50.002;22.014;2023-02-28T06:49:04;55.30;;;26.00;;
65009;SDS011;51556;50.002;22.014;2023-02-28T06:51:30;53.50;;;25.60;;
65009;SDS011;51556;50.002;22.014;2023-02-28T06:53:55;65.10;;;26.70;;
65009;SDS011;51556;50.002;22.014;2023-02-28T06:56:21;52.00;;;24.60;;
65009;SDS011;51556;50.002;22.014;2023-02-28T06:58:47;49.00;;;23.90;;
65009;SDS011;51556;50.002;22.014;2023-02-28T07:01:14;58.40;;;25.40;;
65009;SDS011;51556;50.002;22.014;2023-02-28T07:03:39;54.70;;;24.00;;
65009;SDS011;51556;50.002;22.014;2023-02-28T07:06:05;60.50;;;24.50;;
65009;SDS011;51556;50.002;22.014;2023-02-28T07:08:31;54.20;;;26.00;;
65009;SDS011;51556;50.002;22.014;2023-02-28T07:10:57;52.40;;;23.80;;
65009;SDS011;51556;50.002;22.014;2023-02-28T07:13:23;53.70;;;24.60;;
65009;SDS011;51556;50.002;22.014;2023-02-28T07:15:53;58.70;;;25.90;;
65009;SDS011;51556;50.002;22.014;2023-02-28T07:18:22;55.90;;;25.10;;
65009;SDS011;51556;50.002;22.014;2023-02-28T07:20:47;51.90;;;24.00;;
65009;SDS011;51556;50.002;22.014;2023-02-28T07:23:13;62.00;;;26.20;;
65009;SDS011;51556;50.002;22.014;2023-02-28T07:25:39;56.00;;;25.60;;
65009;SDS011;51556;50.002;22.014;2023-02-28T07:28:04;51.80;;;23.90;;
65009;SDS011;51556;50.002;22.014;2023-02-28T07:30:30;55.00;;;25.70;;
65009;SDS011;51556;50.002;22.014;2023-02-28T07:32:55;55.70;;;25.50;;
65009;SDS011;51556;50.002;22.014;2023-02-28T07:35:21;45.40;;;21.10;;
65009;SDS011;51556;50.002;22.014;2023-02-28T07:37:47;47.00;;;20.20;;
65009;SDS011;51556;50.002;22.014;2023-02-28T07:40:13;42.40;;;17.90;;
65009;SDS011;51556;50.002;22.014;2023-02-28T07:42:39;37.30;;;18.50;;
65009;SDS011;51556;50.002;22.014;2023-02-28T07:45:06;39.70;;;17.70;;
65009;SDS011;51556;50.002;22.014;2023-02-28T07:47:32;37.90;;;18.10;;
65009;SDS011;51556;50.002;22.014;2023-02-28T07:49:57;36.70;;;17.90;;
65009;SDS011;51556;50.002;22.014;2023-02-28T07:52:23;36.40;;;18.20;;
65009;SDS011;51556;50.002;22.014;2023-02-28T07:54:50;43.70;;;19.30;;
65009;SDS011;51556;50.002;22.014;2023-02-28T07:57:16;36.70;;;17.00;;
65009;SDS011;51556;50.002;22.014;2023-02-28T07:59:42;38.60;;;17.60;;
65009;SDS011;51556;50.002;22.014;2023-02-28T08:02:14;44.00;;;20.00;;
65009;SDS011;51556;50.002;22.014;2023-02-28T08:04:40;39.50;;;20.30;;
65009;SDS011;51556;50.002;22.014;2023-02-28T08:07:06;46.20;;;21.20;;
65009;SDS011;51556;50.002;22.014;2023-02-28T08:09:32;40.20;;;18.10;;
65009;SDS011;51556;50.002;22.014;2023-02-28T08:11:57;38.90;;;18.60;;
65009;SDS011;51556;50.002;22.014;2023-02-28T08:14:23;33.30;;;17.30;;
65009;SDS011;51556;50.002;22.014;2023-02-28T08:16:49;31.50;;;16.90;;
65009;SDS011;51556;50.002;22.014;2023-02-28T08:19:14;41.40;;;19.40;;
65009;SDS011;51556;50.002;22.014;2023-02-28T08:21:39;30.60;;;14.20;;
65009;SDS011;51556;50.002;22.014;2023-02-28T08:24:05;23.70;;;11.80;;
65009;SDS011;51556;50.002;22.014;2023-02-28T08:26:31;20.20;;;10.10;;
65009;SDS011;51556;50.002;22.014;2023-02-28T08:28:57;18.00;;;9.60;;
65009;SDS011;51556;50.002;22.014;2023-02-28T08:31:23;16.50;;;9.40;;
65009;SDS011;51556;50.002;22.014;2023-02-28T08:33:49;21.10;;;9.80;;
65009;SDS011;51556;50.002;22.014;2023-02-28T08:36:16;16.50;;;8.70;;
65009;SDS011;51556;50.002;22.014;2023-02-28T08:38:42;14.50;;;7.90;;
65009;SDS011;51556;50.002;22.014;2023-02-28T08:41:09;16.80;;;8.40;;
65009;SDS011;51556;50.002;22.014;2023-02-28T08:43:37;13.20;;;8.50;;
65009;SDS011;51556;50.002;22.014;2023-02-28T08:46:03;17.40;;;8.40;;
65009;SDS011;51556;50.002;22.014;2023-02-28T08:48:30;16.10;;;8.70;;
65009;SDS011;51556;50.002;22.014;2023-02-28T08:53:26;15.80;;;7.50;;
65009;SDS011;51556;50.002;22.014;2023-02-28T08:55:55;12.90;;;6.30;;
65009;SDS011;51556;50.002;22.014;2023-02-28T08:58:22;12.90;;;6.40;;
65009;SDS011;51556;50.002;22.014;2023-02-28T09:00:47;12.00;;;6.70;;
65009;SDS011;51556;50.002;22.014;2023-02-28T09:03:12;13.50;;;5.30;;
65009;SDS011;51556;50.002;22.014;2023-02-28T09:05:38;12.40;;;5.50;;
65009;SDS011;51556;50.002;22.014;2023-02-28T09:08:03;13.00;;;5.70;;
65009;SDS011;51556;50.002;22.014;2023-02-28T09:10:29;10.60;;;5.50;;
65009;SDS011;51556;50.002;22.014;2023-02-28T09:12:55;13.30;;;6.70;;
65009;SDS011;51556;50.002;22.014;2023-02-28T09:15:20;9.00;;;5.20;;
65009;SDS011;51556;50.002;22.014;2023-02-28T09:17:45;14.40;;;6.90;;
65009;SDS011;51556;50.002;22.014;2023-02-28T09:20:11;12.60;;;6.80;;
65009;SDS011;51556;50.002;22.014;2023-02-28T09:22:37;13.40;;;7.20;;
65009;SDS011;51556;50.002;22.014;2023-02-28T09:25:02;15.00;;;7.50;;
65009;SDS011;51556;50.002;22.014;2023-02-28T09:27:28;11.40;;;6.40;;
65009;SDS011;51556;50.002;22.014;2023-02-28T09:29:53;11.40;;;6.50;;
65009;SDS011;51556;50.002;22.014;2023-02-28T09:32:19;17.00;;;5.60;;
65009;SDS011;51556;50.002;22.014;2023-02-28T09:34:44;13.50;;;6.60;;
65009;SDS011;51556;50.002;22.014;2023-02-28T09:37:09;9.20;;;5.20;;
65009;SDS011;51556;50.002;22.014;2023-02-28T09:39:35;10.80;;;5.90;;
65009;SDS011;51556;50.002;22.014;2023-02-28T09:42:00;10.40;;;5.90;;
65009;SDS011;51556;50.002;22.014;2023-02-28T09:44:33;10.10;;;5.30;;
65009;SDS011;51556;50.002;22.014;2023-02-28T09:47:08;14.40;;;7.20;;
65009;SDS011;51556;50.002;22.014;2023-02-28T09:49:41;9.20;;;5.30;;
65009;SDS011;51556;50.002;22.014;2023-02-28T09:52:14;11.30;;;5.50;;
65009;SDS011;51556;50.002;22.014;2023-02-28T09:54:42;10.50;;;4.80;;
65009;SDS011;51556;50.002;22.014;2023-02-28T10:05:24;10.50;;;5.00;;
65009;SDS011;51556;50.002;22.014;2023-02-28T10:08:05;9.00;;;5.60;;
65009;SDS011;51556;50.002;22.014;2023-02-28T10:18:49;9.00;;;5.50;;
65009;SDS011;51556;50.002;22.014;2023-02-28T10:21:26;11.30;;;5.70;;
65009;SDS011;51556;50.002;22.014;2023-02-28T10:24:03;16.60;;;8.40;;
65009;SDS011;51556;50.002;22.014;2023-02-28T10:26:35;12.80;;;5.10;;
65009;SDS011;51556;50.002;22.014;2023-02-28T10:29:01;13.90;;;6.10;;
65009;SDS011;51556;50.002;22.014;2023-02-28T10:31:27;9.30;;;5.30;;
65009;SDS011;51556;50.002;22.014;2023-02-28T10:33:53;9.90;;;5.90;;
65009;SDS011;51556;50.002;22.014;2023-02-28T10:36:23;9.90;;;5.70;;
65009;SDS011;51556;50.002;22.014;2023-02-28T10:38:49;8.90;;;5.20;;
65009;SDS011;51556;50.002;22.014;2023-02-28T10:46:57;7.70;;;4.80;;
65009;SDS011;51556;50.002;22.014;2023-02-28T10:49:24;9.40;;;5.40;;
65009;SDS011;51556;50.002;22.014;2023-02-28T10:51:53;11.20;;;5.80;;
65009;SDS011;51556;50.002;22.014;2023-02-28T10:54:35;15.20;;;6.80;;
65009;SDS011;51556;50.002;22.014;2023-02-28T10:59:40;11.10;;;6.40;;
65009;SDS011;51556;50.002;22.014;2023-02-28T11:04:54;42.50;;;18.00;;
65009;SDS011;51556;50.002;22.014;2023-02-28T11:07:22;13.20;;;6.00;;
65009;SDS011;51556;50.002;22.014;2023-02-28T11:09:48;10.90;;;5.30;;
65009;SDS011;51556;50.002;22.014;2023-02-28T11:14:58;13.80;;;6.00;;
65009;SDS011;51556;50.002;22.014;2023-02-28T11:17:27;11.60;;;6.00;;
65009;SDS011;51556;50.002;22.014;2023-02-28T11:19:58;11.30;;;6.50;;
65009;SDS011;51556;50.002;22.014;2023-02-28T11:22:29;10.40;;;5.20;;
65009;SDS011;51556;50.002;22.014;2023-02-28T11:24:59;12.50;;;6.80;;
65009;SDS011;51556;50.002;22.014;2023-02-28T11:29:55;12.20;;;6.30;;
65009;SDS011;51556;50.002;22.014;2023-02-28T11:32:23;10.10;;;5.50;;
65009;SDS011;51556;50.002;22.014;2023-02-28T11:35:00;11.00;;;6.00;;
65009;SDS011;51556;50.002;22.014;2023-02-28T11:37:36;10.20;;;6.40;;
65009;SDS011;51556;50.002;22.014;2023-02-28T11:40:02;12.70;;;7.50;;
65009;SDS011;51556;50.002;22.014;2023-02-28T11:45:34;13.00;;;7.10;;
65009;SDS011;51556;50.002;22.014;2023-02-28T11:53:44;15.30;;;7.00;;
65009;SDS011;51556;50.002;22.014;2023-02-28T11:56:29;13.00;;;6.80;;
65009;SDS011;51556;50.002;22.014;2023-02-28T12:05:10;16.30;;;7.50;;
65009;SDS011;51556;50.002;22.014;2023-02-28T12:07:49;12.30;;;7.50;;
65009;SDS011;51556;50.002;22.014;2023-02-28T12:10:25;14.60;;;7.50;;
65009;SDS011;51556;50.002;22.014;2023-02-28T12:27:09;17.80;;;7.90;;
65009;SDS011;51556;50.002;22.014;2023-02-28T12:30:00;17.80;;;9.00;;
65009;SDS011;51556;50.002;22.014;2023-02-28T12:35:01;15.10;;;8.90;;
65009;SDS011;51556;50.002;22.014;2023-02-28T12:40:21;16.90;;;8.80;;
65009;SDS011;51556;50.002;22.014;2023-02-28T12:42:49;18.10;;;8.50;;
65009;SDS011;51556;50.002;22.014;2023-02-28T12:47:47;21.70;;;10.00;;
65009;SDS011;51556;50.002;22.014;2023-02-28T12:50:18;17.00;;;8.90;;
65009;SDS011;51556;50.002;22.014;2023-02-28T12:52:53;14.60;;;8.10;;
65009;SDS011;51556;50.002;22.014;2023-02-28T12:55:27;17.20;;;7.90;;
65009;SDS011;51556;50.002;22.014;2023-02-28T13:04:14;14.60;;;7.60;;
65009;SDS011;51556;50.002;22.014;2023-02-28T13:09:58;15.20;;;7.20;;
65009;SDS011;51556;50.002;22.014;2023-02-28T13:12:25;12.80;;;7.00;;
65009;SDS011;51556;50.002;22.014;2023-02-28T13:15:00;14.50;;;7.20;;
65009;SDS011;51556;50.002;22.014;2023-02-28T13:17:30;16.00;;;8.30;;
65009;SDS011;51556;50.002;22.014;2023-02-28T13:19:58;14.30;;;8.00;;
65009;SDS011;51556;50.002;22.014;2023-02-28T13:24:51;19.50;;;8.80;;
65009;SDS011;51556;50.002;22.014;2023-02-28T13:27:35;13.80;;;6.90;;
65009;SDS011;51556;50.002;22.014;2023-02-28T13:38:48;10.80;;;7.30;;
65009;SDS011;51556;50.002;22.014;2023-02-28T13:47:23;14.20;;;7.50;;
65009;SDS011;51556;50.002;22.014;2023-02-28T13:51:48;11.70;;;7.60;;
65009;SDS011;51556;50.002;22.014;2023-02-28T13:56:56;13.60;;;7.70;;
65009;SDS011;51556;50.002;22.014;2023-02-28T14:02:17;16.50;;;9.60;;
65009;SDS011;51556;50.002;22.014;2023-02-28T14:05:33;15.50;;;8.50;;
65009;SDS011;51556;50.002;22.014;2023-02-28T14:07:45;10.30;;;5.50;;
65009;SDS011;51556;50.002;22.014;2023-02-28T14:10:24;9.70;;;4.90;;
65009;SDS011;51556;50.002;22.014;2023-02-28T14:15:26;11.10;;;6.20;;
65009;SDS011;51556;50.002;22.014;2023-02-28T14:17:55;10.50;;;6.70;;
65009;SDS011;51556;50.002;22.014;2023-02-28T14:20:22;12.40;;;6.50;;
65009;SDS011;51556;50.002;22.014;2023-02-28T14:25:33;9.30;;;5.60;;
65009;SDS011;51556;50.002;22.014;2023-02-28T14:31:15;10.60;;;5.90;;
65009;SDS011;51556;50.002;22.014;2023-02-28T14:37:05;10.10;;;6.00;;
65009;SDS011;51556;50.002;22.014;2023-02-28T14:39:35;10.60;;;6.20;;
65009;SDS011;51556;50.002;22.014;2023-02-28T14:42:24;12.80;;;6.50;;
65009;SDS011;51556;50.002;22.014;2023-02-28T14:45:02;10.10;;;6.00;;
65009;SDS011;51556;50.002;22.014;2023-02-28T14:47:33;10.30;;;6.20;;
65009;SDS011;51556;50.002;22.014;2023-02-28T14:50:02;14.20;;;8.50;;
65009;SDS011;51556;50.002;22.014;2023-02-28T14:52:38;15.90;;;8.80;;
65009;SDS011;51556;50.002;22.014;2023-02-28T14:55:15;14.10;;;8.20;;
65009;SDS011;51556;50.002;22.014;2023-02-28T14:57:54;13.70;;;7.60;;
65009;SDS011;51556;50.002;22.014;2023-02-28T15:02:49;11.50;;;6.50;;
65009;SDS011;51556;50.002;22.014;2023-02-28T15:07:43;9.40;;;6.00;;
65009;SDS011;51556;50.002;22.014;2023-02-28T15:12:50;10.00;;;6.00;;
65009;SDS011;51556;50.002;22.014;2023-02-28T15:15:16;13.30;;;7.30;;
65009;SDS011;51556;50.002;22.014;2023-02-28T15:17:53;14.10;;;7.30;;
65009;SDS011;51556;50.002;22.014;2023-02-28T15:20:22;12.30;;;6.90;;
65009;SDS011;51556;50.002;22.014;2023-02-28T15:22:49;12.30;;;6.90;;
65009;SDS011;51556;50.002;22.014;2023-02-28T15:25:19;15.90;;;7.30;;
65009;SDS011;51556;50.002;22.014;2023-02-28T15:27:48;13.70;;;6.70;;
65009;SDS011;51556;50.002;22.014;2023-02-28T15:30:20;13.50;;;7.30;;
65009;SDS011;51556;50.002;22.014;2023-02-28T15:33:06;11.10;;;7.20;;
65009;SDS011;51556;50.002;22.014;2023-02-28T15:35:34;11.50;;;6.50;;
65009;SDS011;51556;50.002;22.014;2023-02-28T15:38:13;12.70;;;6.20;;
65009;SDS011;51556;50.002;22.014;2023-02-28T15:40:53;12.50;;;6.60;;
65009;SDS011;51556;50.002;22.014;2023-02-28T15:43:30;14.00;;;7.00;;
65009;SDS011;51556;50.002;22.014;2023-02-28T15:48:33;13.10;;;7.50;;
65009;SDS011;51556;50.002;22.014;2023-02-28T15:51:05;17.50;;;8.90;;
65009;SDS011;51556;50.002;22.014;2023-02-28T15:54:28;14.10;;;8.70;;
65009;SDS011;51556;50.002;22.014;2023-02-28T15:56:38;20.90;;;9.80;;
65009;SDS011;51556;50.002;22.014;2023-02-28T15:59:12;23.30;;;11.70;;
65009;SDS011;51556;50.002;22.014;2023-02-28T16:01:46;26.00;;;12.50;;
65009;SDS011;51556;50.002;22.014;2023-02-28T16:04:15;22.90;;;11.70;;
65009;SDS011;51556;50.002;22.014;2023-02-28T16:09:16;22.20;;;10.90;;
65009;SDS011;51556;50.002;22.014;2023-02-28T16:11:46;23.30;;;10.10;;
65009;SDS011;51556;50.002;22.014;2023-02-28T16:14:18;21.50;;;10.60;;
65009;SDS011;51556;50.002;22.014;2023-02-28T16:16:48;19.30;;;9.80;;
65009;SDS011;51556;50.002;22.014;2023-02-28T16:19:17;19.00;;;10.30;;
65009;SDS011;51556;50.002;22.014;2023-02-28T16:21:43;18.40;;;9.70;;
65009;SDS011;51556;50.002;22.014;2023-02-28T16:24:09;24.90;;;10.80;;
65009;SDS011;51556;50.002;22.014;2023-02-28T16:26:35;29.20;;;14.60;;
65009;SDS011;51556;50.002;22.014;2023-02-28T16:29:04;36.60;;;16.60;;
65009;SDS011;51556;50.002;22.014;2023-02-28T16:31:32;30.10;;;14.70;;
65009;SDS011;51556;50.002;22.014;2023-02-28T16:34:00;32.10;;;14.50;;
65009;SDS011;51556;50.002;22.014;2023-02-28T16:36:26;33.20;;;15.40;;
65009;SDS011;51556;50.002;22.014;2023-02-28T16:38:53;36.90;;;16.00;;
65009;SDS011;51556;50.002;22.014;2023-02-28T16:41:26;41.00;;;17.70;;
65009;SDS011;51556;50.002;22.014;2023-02-28T16:43:53;43.60;;;20.90;;
65009;SDS011;51556;50.002;22.014;2023-02-28T16:46:24;50.80;;;20.20;;
65009;SDS011;51556;50.002;22.014;2023-02-28T16:48:56;56.70;;;23.60;;
65009;SDS011;51556;50.002;22.014;2023-02-28T16:51:22;55.90;;;24.30;;
65009;SDS011;51556;50.002;22.014;2023-02-28T16:53:48;71.70;;;27.40;;
65009;SDS011;51556;50.002;22.014;2023-02-28T16:56:21;80.70;;;28.20;;
65009;SDS011;51556;50.002;22.014;2023-02-28T16:58:48;71.60;;;28.50;;
65009;SDS011;51556;50.002;22.014;2023-02-28T17:01:15;89.90;;;32.80;;
65009;SDS011;51556;50.002;22.014;2023-02-28T17:03:42;87.70;;;32.60;;
65009;SDS011;51556;50.002;22.014;2023-02-28T17:06:16;97.80;;;39.60;;
65009;SDS011;51556;50.002;22.014;2023-02-28T17:08:44;91.30;;;36.60;;
65009;SDS011;51556;50.002;22.014;2023-02-28T17:11:09;104.50;;;41.90;;
65009;SDS011;51556;50.002;22.014;2023-02-28T17:13:35;103.20;;;41.90;;
65009;SDS011;51556;50.002;22.014;2023-02-28T17:16:00;113.70;;;45.30;;
65009;SDS011;51556;50.002;22.014;2023-02-28T17:18:26;105.10;;;44.60;;
65009;SDS011;51556;50.002;22.014;2023-02-28T17:20:53;98.80;;;43.50;;
65009;SDS011;51556;50.002;22.014;2023-02-28T17:23:19;105.30;;;46.80;;